Weather observations for the past three days for
Hays, Hays Regional Airport
Imperial (Metric)
Date Time (cdt) Wind (mph) Vis. (mi.) Weather Sky Cond. Temperature (ºF) Relative Humidity Wind Chill (°F) Heat Index (°F) Pressure Precipitation (in)
Air Dwpt 6 hour altimeter (in) sea level (mb) 1 hr 3 hr 6 hr
Max. Min.
10 17:56 Calm 10.00 Fair CLR 69.1 37 31% 30.21 1022.5
10 16:56 N 5 10.00 Fair CLR 66.9 35.1 31% 30.21 1022.7
10 15:56 NE 8 10.00 Fair CLR 68 36 31% 30.23 1023.2
10 14:56 NE 8 10.00 Fair CLR 66.9 33.1 29% 30.23 1023.2
10 13:56 E 7 10.00 A Few Clouds FEW075 64 33.1 32% 30.24 1023.5
10 12:56 NE 6 10.00 Mostly Cloudy BKN095 63 32 64 48.9 31% 30.26 1024.2
10 11:56 E 7 10.00 A Few Clouds FEW090 62.1 36 38% 30.27 1024.5
10 10:56 E 7 10.00 Overcast OVC085 57.9 36 44% 30.26 1024.2
10 09:56 E 6 10.00 Overcast BKN085 OVC110 55 36 49% 30.24 1023.9
10 08:56 NE 9 10.00 Mostly Cloudy BKN100 53.1 37 55% 30.21 1022.9
10 07:56 NE 6 10.00 Partly Cloudy SCT085 51.1 37.9 61% 30.21 1022.7
10 06:56 NE 9 10.00 Fair CLR 48.9 37.9 60.1 48.9 66% 45 30.16 1020.9 0.01
10 05:56 NE 9 10.00 Fair CLR 51.1 39 64% 30.14 1019.9
10 04:56 N 8 10.00 Mostly Cloudy BKN110 51.1 42.1 71% 30.11 1018.7
10 03:56 E 17 10.00 Light Rain FEW055 OVC080 51.1 45 80% 30.07 1017.3 0.01 0.01
10 02:56 NE 15 10.00 Light Rain OVC080 55 42.1 62% 30.11 1018.4
10 01:56 N 17 10.00 Light Rain OVC100 59 42.1 54% 30.09 1017.8
10 00:56 NE 18 10.00 Overcast OVC090 60.1 43 69.1 57.9 53% 30.05 1016.5
09 23:56 NE 18 10.00 Mostly Cloudy BKN100 59 44.1 58% 30 1015.0
09 22:56 NE 15 10.00 Fair CLR 59 46 62% 29.96 1013.9
09 21:56 NE 16 10.00 Partly Cloudy SCT110 61 45 56% 29.94 1013.1
09 20:56 NE 17 10.00 A Few Clouds FEW110 63 46.9 56% 29.88 1011.2
09 19:56 NE 15 10.00 Partly Cloudy SCT110 64.9 51.1 61% 29.85 1010.0
09 18:56 NE 18 10.00 Mostly Cloudy BKN110 69.1 52 84 66.9 55% 29.81 1009.1 0.01 0.01
09 17:56 N 15 G 23 10.00 Thunderstorm in Vicinity Light Rain FEW035 BKN110 71.1 51.1 49% 29.8 1008.3
09 16:56 E 17 G 24 10.00 Partly Cloudy SCT110 84 44.1 25% 82 29.74 1005.9
09 15:56 SE 3 10.00 Fair CLR 82 39.9 22% 80 29.78 1007.3
09 14:56 S 8 10.00 Fair CLR 81 41 24% 79 29.8 1008.1
09 13:56 S 10 10.00 Fair CLR 80.1 43 27% 79 29.81 1008.5
09 12:56 S 7 10.00 Overcast OVC110 75.9 45 77 48.9 33% 77 29.84 1009.7
09 11:56 SW 10 10.00 Mostly Cloudy BKN120 73.9 48 40% 29.87 1010.5
09 10:56 W 10 10.00 Overcast OVC110 66 46 49% 29.88 1011.3
09 09:56 W 10 10.00 Overcast OVC110 62.1 44.1 52% 29.89 1011.4
09 08:56 W 8 10.00 Overcast OVC110 59 45 60% 29.87 1010.6
09 07:56 W 7 10.00 A Few Clouds FEW120 55 44.1 67% 29.86 1010.3
09 06:56 W 7 10.00 Overcast OVC120 48.9 39.9 50 45 71% 46 29.84 1009.9
09 05:56 W 9 10.00 A Few Clouds FEW120 48.9 39 69% 45 29.84 1009.7
09 04:56 W 6 10.00 Fair CLR 46 39.9 79% 44 29.85 1010.0
09 03:56 W 5 10.00 Fair CLR 46.9 41 80% 45 29.85 1010.0
09 02:56 SW 6 10.00 Fair CLR 48 42.1 80% 46 29.85 1010.1
09 01:56 W 7 10.00 Fair CLR 48.9 39.9 71% 46 29.86 1010.4
09 00:56 W 6 10.00 Fair CLR 48.9 39.9 75 46.9 71% 47 29.86 1010.6
08 23:56 W 3 10.00 Fair CLR 54 39.9 59% 29.85 1010.2
08 22:56 W 5 10.00 Fair CLR 54 42.1 64% 29.85 1010.2
08 21:56 W 6 10.00 Fair CLR 59 41 51% 29.83 1009.5
08 20:56 W 6 10.00 Fair CLR 66 39 37% 29.82 1008.8
08 19:56 W 7 10.00 Fair CLR 72 39.9 31% 29.81 1008.4
08 18:56 W 9 10.00 Fair CLR 75 36 75.9 69.1 24% 76 29.81 1008.4
08 17:56 NW 12 G 21 10.00 Fair CLR 75.9 36 23% 77 29.82 1008.6
08 16:56 NW 9 10.00 A Few Clouds FEW090 75 37.9 26% 77 29.83 1009.0
08 15:56 NW 12 10.00 Fair CLR 73.9 37 26% 29.84 1009.4
08 14:56 N 13 G 17 10.00 Fair CLR 73 39 29% 29.85 1009.7
08 13:56 N 8 10.00 Fair CLR 70 39.9 34% 29.86 1010.4
08 12:56 NE 14 10.00 A Few Clouds FEW060 69.1 41 71.1 54 36% 29.85 1009.9
08 11:56 N 18 G 23 10.00 A Few Clouds FEW085 68 41 38% 29.84 1009.7
08 10:56 N 18 10.00 Mostly Cloudy FEW095 BKN110 68 43 40% 29.84 1009.5
08 09:56 N 18 10.00 Fair CLR 66.9 45 45% 29.83 1009.2
08 08:56 W 5 10.00 A Few Clouds FEW120 61 48 63% 29.82 1008.8
08 07:56 NW 7 10.00 Partly Cloudy SCT120 57.9 46 65% 29.81 1008.3
08 06:56 S 10 10.00 Fair CLR 54 43 61 54 67% 29.81 1008.4
08 05:56 W 6 10.00 A Few Clouds FEW120 57 41 55% 29.8 1007.9
08 04:56 W 6 10.00 Fair CLR 57 39.9 53% 29.8 1008.1
08 03:56 W 10 10.00 Fair CLR 57.9 41 53% 29.79 1007.7
08 02:56 SW 12 10.00 Fair CLR 61 39 44% 29.8 1007.9
08 01:56 W 6 10.00 A Few Clouds FEW110 55.9 43 62% 29.82 1008.7
08 00:56 Calm 10.00 Partly Cloudy SCT110 57.9 43 78.1 54 58% 29.82 1008.9
07 23:56 Calm 10.00 Mostly Cloudy BKN110 60.1 46 60% 29.82 1008.9
07 22:56 SW 5 10.00 A Few Clouds FEW120 64.9 44.1 47% 29.82 1009.1
07 21:56 Calm 10.00 Overcast OVC120 63 46 54% 29.82 1009.2
07 20:56 S 6 10.00 Fair CLR 66.9 43 42% 29.8 1008.8
07 19:56 Calm 10.00 Fair CLR 75 42.1 31% 77 29.79 1008.2
07 18:56 NW 10 10.00 Fair CLR 78.1 37.9 79 71.1 24% 78 29.79 1008.3
Date Time (cdt) Wind (mph) Vis. (mi.) Weather Sky Cond. Air Dwpt Max. Min. Relative Humidity Wind Chill (°F) Heat Index (°F) altimeter (in) sea level (mb) 1 hr 3 hr 6 hr
6 hour
Temperature (ºF) Pressure Precipitation (in)